Time;durP1;ratioP1;P1;durP2;ratioP2;P2;SDS_P1;SDS_P2;PMS_P1;PMS_P2;Temp;Humidity;BMP_temperature;BMP_pressure;BME280_temperature;BME280_humidity;BME280_pressure;Samples;Min_cycle;Max_cycle;Signal;HPM_P1;HPM_P2
2022/09/10 00:00:55;;;;;;;1.60;1.10;;;17.30;43.80;;;;;;10560948;28;20220;-79
2022/09/10 00:05:58;;;;;;;1.00;0.90;;;17.20;44.70;;;;;;10565263;28;20227;-78
2022/09/10 00:11:05;;;;;;;1.07;0.97;;;17.20;43.90;;;;;;10566919;28;20264;-79
2022/09/10 00:16:11;;;;;;;1.70;1.13;;;17.20;44.70;;;;;;10593420;27;20220;-79
2022/09/10 00:21:17;;;;;;;1.70;1.13;;;17.20;44.50;;;;;;10577894;27;20637;-78
2022/09/10 00:26:22;;;;;;;1.43;1.17;;;17.20;44.20;;;;;;10572475;27;20231;-78
2022/09/10 00:31:28;;;;;;;1.17;1.13;;;17.10;43.90;;;;;;10570359;28;20226;-78
2022/09/10 00:36:35;;;;;;;3.00;1.20;;;17.10;44.90;;;;;;10559971;28;20227;-79
2022/09/10 00:41:41;;;;;;;1.83;1.17;;;17.00;44.20;;;;;;10577680;28;20227;-78
2022/09/10 00:46:49;;;;;;;3.50;1.30;;;16.90;44.20;;;;;;10578368;28;20303;-78
2022/09/10 00:51:53;;;;;;;2.30;1.10;;;16.90;44.90;;;;;;10566877;28;20211;-78
2022/09/10 00:57:02;;;;;;;1.33;1.23;;;16.90;44.30;;;;;;10561381;28;20223;-78
2022/09/10 01:02:07;;;;;;;0.97;0.97;;;16.80;45.00;;;;;;10576544;27;20908;-78
2022/09/10 01:07:12;;;;;;;2.90;1.07;;;16.80;44.90;;;;;;10572797;28;20273;-78
2022/09/10 01:12:27;;;;;;;0.90;0.90;;;16.80;44.80;;;;;;10568142;28;20219;-78
2022/09/10 01:17:44;;;;;;;1.93;1.10;;;16.70;45.80;;;;;;10580092;28;20223;-78
2022/09/10 01:23:11;;;;;;;1.13;1.03;;;16.70;45.80;;;;;;10574019;28;20227;-78
2022/09/10 01:28:27;;;;;;;1.97;1.03;;;16.70;45.80;;;;;;10560302;28;20212;-78
2022/09/10 01:33:36;;;;;;;1.83;1.20;;;16.70;45.80;;;;;;10565491;28;20231;-78
2022/09/10 01:38:40;;;;;;;1.20;1.00;;;16.70;45.70;;;;;;10574423;28;20619;-79
2022/09/10 01:43:45;;;;;;;0.87;0.87;;;16.70;45.50;;;;;;10567206;28;20234;-79
2022/09/10 01:49:17;;;;;;;1.10;1.00;;;16.70;45.60;;;;;;10556830;28;20268;-78
2022/09/10 01:54:39;;;;;;;2.70;1.30;;;16.70;45.80;;;;;;10572468;28;20267;-78
2022/09/10 01:59:53;;;;;;;1.33;1.00;;;16.70;45.80;;;;;;10558301;28;20293;-78
2022/09/10 02:04:57;;;;;;;2.83;0.90;;;16.80;45.90;;;;;;10555594;28;20231;-79
2022/09/10 02:10:02;;;;;;;1.10;0.87;;;16.70;45.10;;;;;;10567433;28;20705;-79
2022/09/10 02:15:08;;;;;;;1.60;1.00;;;16.70;45.40;;;;;;10558604;28;20219;-78
2022/09/10 02:20:13;;;;;;;1.23;1.00;;;16.80;45.90;;;;;;10564186;28;20223;-78
2022/09/10 02:25:16;;;;;;;0.97;0.97;;;16.80;45.30;;;;;;10570738;28;20223;-78
2022/09/10 02:30:23;;;;;;;1.50;1.03;;;16.90;45.10;;;;;;10556225;28;20219;-79
2022/09/10 02:35:27;;;;;;;1.13;1.10;;;17.00;45.60;;;;;;10554306;28;20245;-79
2022/09/10 02:40:30;;;;;;;1.40;1.10;;;17.00;45.10;;;;;;10570147;27;20216;-79
2022/09/10 02:45:35;;;;;;;1.43;0.97;;;17.10;45.20;;;;;;10573952;28;20306;-78
2022/09/10 02:50:38;;;;;;;0.90;0.90;;;17.10;45.50;;;;;;10570807;28;20239;-78
2022/09/10 02:55:45;;;;;;;2.50;0.97;;;17.10;45.20;;;;;;10580982;28;20229;-78
2022/09/10 03:00:49;;;;;;;0.80;0.80;;;17.10;45.90;;;;;;10568669;28;20745;-79
2022/09/10 03:05:52;;;;;;;4.17;1.10;;;17.20;45.50;;;;;;10558705;28;20231;-78
2022/09/10 03:10:58;;;;;;;1.20;1.10;;;17.10;45.00;;;;;;10553578;28;20639;-78
2022/09/10 03:16:03;;;;;;;1.43;1.03;;;17.10;45.10;;;;;;10563158;28;20290;-79
2022/09/10 03:21:11;;;;;;;0.73;0.73;;;17.10;45.40;;;;;;10566177;28;20293;-78
2022/09/10 03:26:16;;;;;;;0.93;0.90;;;17.10;45.60;;;;;;10573397;28;20230;-79
2022/09/10 03:31:21;;;;;;;0.80;0.80;;;17.10;45.40;;;;;;10561015;28;20234;-78
2022/09/10 03:36:28;;;;;;;1.90;1.10;;;17.10;45.40;;;;;;10568552;28;20228;-78
2022/09/10 03:41:31;;;;;;;0.90;0.90;;;17.10;45.00;;;;;;10569692;28;20222;-78
2022/09/10 03:46:36;;;;;;;2.23;0.93;;;17.10;44.80;;;;;;10558193;28;20275;-78
2022/09/10 03:51:40;;;;;;;1.77;0.90;;;17.20;45.00;;;;;;10569035;28;20222;-78
2022/09/10 03:56:43;;;;;;;0.90;0.90;;;17.20;44.60;;;;;;10566888;28;20239;-78
2022/09/10 04:01:48;;;;;;;1.33;1.17;;;17.20;44.50;;;;;;10583597;27;20726;-79
2022/09/10 04:06:52;;;;;;;1.80;1.00;;;17.20;44.50;;;;;;10582367;28;20223;-78
2022/09/10 04:11:56;;;;;;;1.23;0.80;;;17.10;44.30;;;;;;10557768;28;20639;-78
2022/09/10 04:17:00;;;;;;;1.40;0.70;;;17.10;44.10;;;;;;10566181;28;20227;-78
2022/09/10 04:22:04;;;;;;;0.80;0.80;;;17.10;44.30;;;;;;10568526;28;20227;-78
2022/09/10 04:27:07;;;;;;;2.73;1.50;;;17.10;44.40;;;;;;10564462;27;20342;-78
2022/09/10 04:32:12;;;;;;;1.83;1.30;;;17.10;44.30;;;;;;10565104;27;20244;-78
2022/09/10 04:37:15;;;;;;;1.70;1.60;;;17.10;44.40;;;;;;10564603;28;20227;-78
2022/09/10 04:42:21;;;;;;;2.50;1.47;;;17.00;44.40;;;;;;10565335;28;20292;-78
2022/09/10 04:47:26;;;;;;;1.57;1.30;;;17.00;44.50;;;;;;10569833;28;20591;-79
2022/09/10 04:52:29;;;;;;;1.30;1.20;;;17.00;44.80;;;;;;10571350;28;20215;-79
2022/09/10 04:57:32;;;;;;;1.50;1.40;;;17.00;44.50;;;;;;10572600;28;20227;-78
2022/09/10 05:02:37;;;;;;;1.90;1.70;;;17.00;44.70;;;;;;10576594;27;20641;-79
2022/09/10 05:07:40;;;;;;;1.80;1.70;;;17.00;45.10;;;;;;10567368;28;20227;-78
2022/09/10 05:12:44;;;;;;;1.57;1.47;;;17.00;45.00;;;;;;10575093;28;20691;-78
2022/09/10 05:17:48;;;;;;;2.20;1.27;;;17.00;45.00;;;;;;10573677;28;20227;-78
2022/09/10 05:22:51;;;;;;;1.27;1.23;;;17.00;45.50;;;;;;10570445;28;20273;-78
2022/09/10 05:27:55;;;;;;;1.97;1.20;;;17.00;45.20;;;;;;10574701;28;20884;-78
2022/09/10 05:33:16;;;;;;;1.17;1.10;;;17.00;45.40;;;;;;10562684;28;20226;-78
2022/09/10 05:38:19;;;;;;;1.13;0.83;;;16.90;46.00;;;;;;10569515;28;20227;-78
2022/09/10 05:43:33;;;;;;;1.00;0.90;;;16.90;46.70;;;;;;10573108;27;20227;-77
2022/09/10 05:48:38;;;;;;;0.97;0.83;;;16.80;46.50;;;;;;10568025;28;20211;-79
2022/09/10 05:53:43;;;;;;;2.17;0.97;;;16.80;46.00;;;;;;10569297;28;20231;-79
2022/09/10 05:58:47;;;;;;;1.67;1.00;;;16.90;46.00;;;;;;10572223;27;20230;-79
2022/09/10 06:03:51;;;;;;;1.07;1.03;;;16.90;46.00;;;;;;10574060;27;20220;-79
2022/09/10 06:08:55;;;;;;;1.30;1.20;;;17.00;46.70;;;;;;10570609;28;20222;-81
2022/09/10 06:13:58;;;;;;;1.90;1.03;;;17.00;46.10;;;;;;10571512;28;21019;-80
2022/09/10 06:19:02;;;;;;;1.63;0.90;;;17.00;46.20;;;;;;10568998;27;20211;-80
2022/09/10 06:24:06;;;;;;;4.10;1.00;;;17.00;47.00;;;;;;10567365;28;20231;-80
2022/09/10 06:29:10;;;;;;;1.23;0.90;;;17.00;46.60;;;;;;10570156;28;20230;-79
2022/09/10 06:34:17;;;;;;;3.07;1.20;;;17.00;46.80;;;;;;10569444;28;20227;-77
2022/09/10 06:39:21;;;;;;;2.00;1.30;;;17.00;47.50;;;;;;10566739;28;20229;-77
2022/09/10 06:44:25;;;;;;;1.30;1.00;;;17.10;47.10;;;;;;10571850;27;20273;-77
2022/09/10 06:49:30;;;;;;;1.10;1.00;;;17.10;47.50;;;;;;10562626;28;20227;-79
2022/09/10 06:54:33;;;;;;;1.73;1.07;;;17.10;48.30;;;;;;10568514;28;20251;-80
2022/09/10 06:59:37;;;;;;;1.80;1.30;;;17.20;48.00;;;;;;10572410;27;20280;-81
2022/09/10 07:04:41;;;;;;;1.87;1.40;;;17.30;48.10;;;;;;10571439;27;20313;-80
2022/09/10 07:09:44;;;;;;;1.10;1.00;;;17.30;48.60;;;;;;10567382;28;20230;-80
2022/09/10 07:14:47;;;;;;;1.37;1.10;;;17.40;48.20;;;;;;10566549;28;20479;-78
2022/09/10 07:19:52;;;;;;;1.10;1.00;;;17.50;48.10;;;;;;10567260;28;20223;-79
2022/09/10 07:24:55;;;;;;;0.90;0.90;;;17.50;48.40;;;;;;10567338;28;20223;-78
2022/09/10 07:29:59;;;;;;;1.27;0.80;;;17.50;48.30;;;;;;10575039;27;20230;-79
2022/09/10 07:35:06;;;;;;;1.10;1.00;;;17.60;48.70;;;;;;10576294;28;20229;-82
2022/09/10 07:40:10;;;;;;;0.70;0.70;;;17.70;49.10;;;;;;10591395;27;20233;-79
2022/09/10 07:45:15;;;;;;;0.60;0.60;;;17.80;48.80;;;;;;10572971;27;20299;-77
2022/09/10 07:50:19;;;;;;;2.17;0.70;;;18.00;48.40;;;;;;10575684;27;20306;-79
2022/09/10 07:55:23;;;;;;;0.77;0.70;;;18.00;48.60;;;;;;10556948;28;20230;-79
2022/09/10 08:00:26;;;;;;;0.70;0.70;;;18.10;48.10;;;;;;10587914;27;20668;-78
2022/09/10 08:05:31;;;;;;;1.53;0.70;;;18.20;47.90;;;;;;10576114;27;20724;-77
2022/09/10 08:10:35;;;;;;;0.90;0.80;;;18.20;47.70;;;;;;10576951;28;20732;-81
2022/09/10 08:15:42;;;;;;;0.83;0.70;;;18.30;47.60;;;;;;10574083;28;20260;-77
2022/09/10 08:20:55;;;;;;;2.20;1.20;;;18.30;47.90;;;;;;10568744;28;20227;-83
2022/09/10 08:25:58;;;;;;;1.90;1.50;;;18.40;48.40;;;;;;10566147;28;20284;-81
2022/09/10 08:31:03;;;;;;;2.53;0.97;;;18.40;48.00;;;;;;10563567;28;20251;-77
2022/09/10 08:36:10;;;;;;;3.77;2.67;;;18.40;48.00;;;;;;10558998;28;20568;-79
2022/09/10 08:41:27;;;;;;;4.90;4.30;;;18.50;48.70;;;;;;10564958;28;20223;-77
2022/09/10 08:46:33;;;;;;;3.53;2.23;;;18.60;48.20;;;;;;10565847;28;20230;-77
2022/09/10 08:51:43;;;;;;;1.10;1.00;;;18.80;48.30;;;;;;10557963;28;20223;-79
2022/09/10 08:56:49;;;;;;;0.87;0.80;;;18.90;47.80;;;;;;10566021;28;20235;-81
2022/09/10 09:01:58;;;;;;;1.87;0.93;;;19.00;47.90;;;;;;10564835;28;20218;-78
2022/09/10 09:07:11;;;;;;;1.10;1.00;;;19.10;47.90;;;;;;10546151;28;20241;-77
2022/09/10 09:12:21;;;;;;;3.73;1.00;;;19.20;48.00;;;;;;10551693;28;20216;-79
2022/09/10 09:17:53;;;;;;;1.30;1.20;;;19.20;48.00;;;;;;10558646;28;20227;-78
2022/09/10 09:23:06;;;;;;;1.77;1.00;;;19.30;47.90;;;;;;10541098;28;20226;-77
2022/09/10 09:28:17;;;;;;;0.93;0.83;;;19.40;47.30;;;;;;10546460;28;20215;-77
2022/09/10 09:33:23;;;;;;;0.80;0.80;;;19.50;47.60;;;;;;10562375;28;20223;-78
2022/09/10 09:38:32;;;;;;;1.10;0.80;;;19.60;47.60;;;;;;10565886;28;20237;-77
2022/09/10 09:43:49;;;;;;;0.90;0.70;;;19.70;47.00;;;;;;10548872;28;20628;-76
2022/09/10 09:48:58;;;;;;;1.77;0.87;;;19.90;46.50;;;;;;10539785;28;20223;-76
2022/09/10 09:54:08;;;;;;;2.53;0.90;;;20.10;46.80;;;;;;10564223;27;20719;-79
2022/09/10 09:59:34;;;;;;;0.50;0.50;;;20.20;45.80;;;;;;10578229;27;20242;-81
2022/09/10 10:04:40;;;;;;;1.20;0.90;;;20.30;45.50;;;;;;10548308;28;20227;-79
2022/09/10 10:09:50;;;;;;;1.30;1.00;;;20.30;45.50;;;;;;10536262;28;20276;-78
2022/09/10 10:14:54;;;;;;;1.83;1.00;;;20.20;45.40;;;;;;10550791;28;20285;-78
2022/09/10 10:20:00;;;;;;;1.07;0.90;;;20.30;45.90;;;;;;10561710;28;20815;-79
2022/09/10 10:25:06;;;;;;;0.80;0.80;;;20.20;45.50;;;;;;10563600;28;20215;-78
2022/09/10 10:30:22;;;;;;;1.53;0.90;;;20.20;45.40;;;;;;10563735;28;20223;-79
2022/09/10 10:35:44;;;;;;;1.10;0.80;;;20.30;45.40;;;;;;10563883;28;20241;-80
2022/09/10 10:40:56;;;;;;;0.67;0.67;;;20.30;44.90;;;;;;10565340;28;20234;-79
2022/09/10 10:46:03;;;;;;;1.20;0.70;;;20.30;45.40;;;;;;10560879;28;20234;-79
2022/09/10 10:51:17;;;;;;;1.47;0.90;;;20.40;45.80;;;;;;10565386;28;20584;-79
2022/09/10 10:56:29;;;;;;;0.67;0.60;;;20.40;45.80;;;;;;10562910;28;20229;-82
2022/09/10 11:01:40;;;;;;;0.77;0.77;;;20.40;45.70;;;;;;10564873;28;20230;-79
2022/09/10 11:06:46;;;;;;;0.70;0.50;;;20.40;45.70;;;;;;10560543;28;20231;-79
2022/09/10 11:11:56;;;;;;;1.40;0.70;;;20.40;45.20;;;;;;10565716;28;20231;-80
2022/09/10 11:17:05;;;;;;;0.77;0.63;;;20.40;44.70;;;;;;10568448;28;20796;-78
2022/09/10 11:22:14;;;;;;;0.70;0.60;;;20.40;44.70;;;;;;10566219;28;20229;-78
2022/09/10 11:27:24;;;;;;;0.93;0.80;;;20.50;45.10;;;;;;10567466;28;20231;-80
2022/09/10 11:32:33;;;;;;;1.67;0.70;;;20.50;45.00;;;;;;10570058;28;20227;-79
2022/09/10 11:37:53;;;;;;;0.60;0.60;;;20.60;45.50;;;;;;10562457;28;20226;-80
2022/09/10 11:43:03;;;;;;;0.87;0.80;;;20.60;44.80;;;;;;10563178;28;20243;-81
2022/09/10 11:48:16;;;;;;;1.00;0.70;;;20.60;45.10;;;;;;10553937;28;20228;-79
2022/09/10 11:53:22;;;;;;;1.67;1.20;;;20.70;44.80;;;;;;10566470;28;20231;-81
2022/09/10 11:58:39;;;;;;;12.67;11.53;;;20.80;44.70;;;;;;10561281;28;20386;-78
2022/09/10 12:04:07;;;;;;;4.30;2.97;;;21.00;44.90;;;;;;10555908;28;20237;-80
2022/09/10 12:09:20;;;;;;;1.13;1.10;;;21.10;45.00;;;;;;10573844;27;20211;-77
2022/09/10 12:14:26;;;;;;;0.87;0.87;;;21.30;44.40;;;;;;10566688;27;20533;-80
2022/09/10 12:19:34;;;;;;;0.90;0.60;;;21.50;44.00;;;;;;10562624;28;20812;-76
2022/09/10 12:24:39;;;;;;;1.03;0.67;;;21.70;42.90;;;;;;10551243;28;20234;-77
2022/09/10 12:29:44;;;;;;;0.90;0.90;;;21.80;42.30;;;;;;10568055;28;20406;-77
2022/09/10 12:34:48;;;;;;;0.60;0.60;;;21.80;41.90;;;;;;10562754;28;20246;-76
2022/09/10 12:40:37;;;;;;;0.93;0.70;;;21.80;42.50;;;;;;10569300;27;20226;-81
2022/09/10 12:46:04;;;;;;;0.70;0.70;;;21.60;42.10;;;;;;10510609;28;20291;-85
2022/09/10 12:51:22;;;;;;;0.73;0.70;;;21.50;41.60;;;;;;10590951;27;20226;-83
2022/09/10 12:56:59;;;;;;;0.63;0.50;;;21.40;42.20;;;;;;10578624;28;20279;-80
2022/09/10 13:02:20;;;;;;;0.67;0.60;;;21.30;42.60;;;;;;10567711;28;20234;-79
2022/09/10 13:07:40;;;;;;;0.57;0.57;;;21.30;42.00;;;;;;10566933;28;20245;-80
2022/09/10 13:12:44;;;;;;;0.87;0.70;;;21.10;41.10;;;;;;10553769;28;20734;-78
2022/09/10 13:18:26;;;;;;;1.43;0.60;;;20.90;41.50;;;;;;10564279;27;20226;-81
2022/09/10 13:23:50;;;;;;;2.20;0.50;;;20.70;41.70;;;;;;10569680;27;20754;-79
2022/09/10 13:29:04;;;;;;;0.97;0.70;;;20.50;42.30;;;;;;10573943;27;20226;-78
2022/09/10 13:34:46;;;;;;;0.70;0.60;;;20.20;42.50;;;;;;10572223;28;20322;-79
2022/09/10 13:40:18;;;;;;;0.90;0.70;;;19.90;42.90;;;;;;10520735;27;20690;-81
2022/09/10 13:45:25;;;;;;;0.50;0.50;;;19.70;43.70;;;;;;10567848;27;20234;-82
2022/09/10 13:50:35;;;;;;;1.00;0.80;;;19.70;43.90;;;;;;10568038;28;20606;-82
2022/09/10 13:55:47;;;;;;;0.90;0.80;;;19.60;44.50;;;;;;10560650;28;20231;-77
2022/09/10 14:00:54;;;;;;;1.07;0.93;;;19.60;45.00;;;;;;10563118;28;20219;-78
2022/09/10 14:06:00;;;;;;;1.67;0.80;;;19.60;45.30;;;;;;10560495;28;20703;-78
2022/09/10 14:11:13;;;;;;;0.80;0.70;;;19.70;45.60;;;;;;10560283;28;20592;-78
2022/09/10 14:16:20;;;;;;;0.67;0.67;;;19.80;45.90;;;;;;10558313;28;20742;-77
2022/09/10 14:21:26;;;;;;;1.10;0.70;;;19.90;45.70;;;;;;10563077;28;20608;-78
2022/09/10 14:26:32;;;;;;;0.87;0.60;;;20.00;45.90;;;;;;10559112;28;20231;-80
2022/09/10 14:31:37;;;;;;;1.57;0.67;;;20.00;46.00;;;;;;10559714;28;20223;-78
2022/09/10 14:36:40;;;;;;;0.73;0.73;;;20.10;46.10;;;;;;10567117;28;20241;-78
2022/09/10 14:41:45;;;;;;;1.00;0.70;;;20.20;45.80;;;;;;10568239;28;20882;-78
2022/09/10 14:46:51;;;;;;;0.67;0.53;;;20.20;46.10;;;;;;10567709;28;20223;-78
2022/09/10 14:51:55;;;;;;;0.60;0.60;;;20.30;46.30;;;;;;10567186;28;20235;-79
2022/09/10 14:57:02;;;;;;;0.73;0.70;;;20.30;46.00;;;;;;10565128;28;20237;-79
2022/09/10 15:02:15;;;;;;;1.13;0.90;;;20.40;47.00;;;;;;10562807;28;21158;-79
2022/09/10 15:07:18;;;;;;;1.00;0.90;;;20.50;46.70;;;;;;10564250;28;20279;-79
2022/09/10 15:12:25;;;;;;;1.07;0.80;;;20.50;46.30;;;;;;10568828;28;20236;-79
2022/09/10 15:17:29;;;;;;;0.83;0.70;;;20.50;46.00;;;;;;10565941;28;20226;-79
2022/09/10 15:22:32;;;;;;;1.40;0.80;;;20.50;45.80;;;;;;10572088;28;20222;-79
2022/09/10 15:27:37;;;;;;;0.60;0.57;;;20.50;45.50;;;;;;10562813;28;20227;-82
2022/09/10 15:32:40;;;;;;;1.50;0.60;;;20.60;45.60;;;;;;10563652;28;20219;-81
2022/09/10 15:37:44;;;;;;;1.03;0.60;;;20.60;46.30;;;;;;10562398;28;20289;-78
2022/09/10 15:42:51;;;;;;;1.33;0.70;;;20.70;45.50;;;;;;10569585;28;20227;-76
2022/09/10 15:47:54;;;;;;;1.17;0.60;;;20.80;45.70;;;;;;10569606;28;20227;-80
2022/09/10 15:52:57;;;;;;;0.70;0.57;;;20.80;46.60;;;;;;10571303;27;20696;-77
2022/09/10 15:58:02;;;;;;;1.20;0.60;;;20.90;45.20;;;;;;10565785;28;20229;-77
2022/09/10 16:03:06;;;;;;;1.10;0.80;;;20.90;43.60;;;;;;10564368;28;20235;-80
2022/09/10 16:08:10;;;;;;;0.60;0.60;;;20.90;43.40;;;;;;10563527;28;20219;-76
2022/09/10 16:13:14;;;;;;;0.60;0.60;;;20.80;43.70;;;;;;10566978;28;20230;-78
2022/09/10 16:18:18;;;;;;;0.70;0.63;;;20.70;43.30;;;;;;10570293;28;20226;-78
2022/09/10 16:23:21;;;;;;;1.10;1.10;;;20.70;43.60;;;;;;10557873;28;20230;-77
2022/09/10 16:28:26;;;;;;;1.07;0.90;;;20.60;43.70;;;;;;10573321;28;20339;-78
2022/09/10 16:33:29;;;;;;;1.10;1.00;;;20.60;43.50;;;;;;10570682;28;20276;-76
2022/09/10 16:38:33;;;;;;;0.70;0.70;;;20.50;44.00;;;;;;10581548;28;20227;-77
2022/09/10 16:43:38;;;;;;;1.83;0.90;;;20.50;43.90;;;;;;10556570;28;20288;-79
2022/09/10 16:48:42;;;;;;;0.70;0.70;;;20.50;43.70;;;;;;10579832;28;20227;-78
2022/09/10 16:53:54;;;;;;;1.00;0.90;;;20.50;43.90;;;;;;10578804;28;20238;-79
2022/09/10 16:58:59;;;;;;;0.97;0.80;;;20.50;43.90;;;;;;10566108;28;20293;-78
2022/09/10 17:04:03;;;;;;;1.07;0.90;;;20.50;43.90;;;;;;10557014;28;20234;-78
2022/09/10 17:09:06;;;;;;;1.63;0.87;;;20.40;43.90;;;;;;10565546;27;20225;-76
2022/09/10 17:14:11;;;;;;;1.00;0.80;;;20.40;43.80;;;;;;10562492;28;20283;-76
2022/09/10 17:19:17;;;;;;;0.70;0.60;;;20.40;43.50;;;;;;10560499;27;20227;-77
2022/09/10 17:24:22;;;;;;;0.50;0.50;;;20.30;43.70;;;;;;10567173;27;20237;-79
2022/09/10 17:29:26;;;;;;;0.70;0.70;;;20.20;43.60;;;;;;10563657;28;20230;-77
2022/09/10 17:34:30;;;;;;;0.90;0.70;;;20.10;43.70;;;;;;10563497;27;20230;-77
2022/09/10 17:39:33;;;;;;;0.60;0.60;;;20.00;43.80;;;;;;10561543;28;20229;-78
2022/09/10 17:44:37;;;;;;;0.97;0.70;;;19.90;43.80;;;;;;10561502;28;20652;-78
2022/09/10 17:49:42;;;;;;;0.63;0.60;;;19.90;44.00;;;;;;10564891;27;20280;-77
2022/09/10 17:54:45;;;;;;;0.70;0.70;;;19.80;44.60;;;;;;10563609;28;20235;-76
2022/09/10 17:59:49;;;;;;;0.80;0.80;;;19.70;44.00;;;;;;10566828;28;20223;-77
2022/09/10 18:04:52;;;;;;;0.70;0.70;;;19.60;44.20;;;;;;10565617;27;20234;-79
2022/09/10 18:09:56;;;;;;;2.47;0.90;;;19.60;44.40;;;;;;10568541;28;20291;-78
2022/09/10 18:15:00;;;;;;;2.33;0.90;;;19.60;44.50;;;;;;10561225;28;20226;-79
2022/09/10 18:20:03;;;;;;;1.43;0.90;;;19.50;44.60;;;;;;10566241;28;20340;-77
2022/09/10 18:25:07;;;;;;;0.90;0.80;;;19.50;44.50;;;;;;10563710;27;20219;-77
2022/09/10 18:30:12;;;;;;;0.90;0.90;;;19.40;44.50;;;;;;10561246;27;20223;-78
2022/09/10 18:35:16;;;;;;;0.90;0.90;;;19.40;44.90;;;;;;10566689;28;20235;-77
2022/09/10 18:40:20;;;;;;;1.27;1.07;;;19.40;44.80;;;;;;10567007;28;20223;-77
2022/09/10 18:45:25;;;;;;;1.03;0.97;;;19.30;44.80;;;;;;10570720;27;20235;-78
2022/09/10 18:50:29;;;;;;;1.00;0.90;;;19.30;45.00;;;;;;10565210;28;20800;-77
2022/09/10 18:55:32;;;;;;;0.70;0.60;;;19.30;45.00;;;;;;10559391;28;20222;-77
2022/09/10 19:00:37;;;;;;;0.50;0.50;;;19.30;44.70;;;;;;10566231;28;20268;-78
2022/09/10 19:05:41;;;;;;;0.80;0.80;;;19.40;44.80;;;;;;10562041;28;20222;-78
2022/09/10 19:10:44;;;;;;;0.80;0.80;;;19.40;45.00;;;;;;10563592;28;20231;-78
2022/09/10 19:15:55;;;;;;;0.70;0.70;;;19.40;44.90;;;;;;10561951;28;20235;-78
2022/09/10 19:21:03;;;;;;;0.73;0.70;;;19.40;44.90;;;;;;10565311;28;20219;-77
2022/09/10 19:26:08;;;;;;;1.20;0.97;;;19.50;44.90;;;;;;10560517;28;20222;-75
2022/09/10 19:31:15;;;;;;;0.60;0.60;;;19.50;44.70;;;;;;10566575;28;20223;-76
2022/09/10 19:36:18;;;;;;;1.40;0.80;;;19.50;44.90;;;;;;10561560;28;20223;-76
2022/09/10 19:41:21;;;;;;;1.60;0.90;;;19.60;44.90;;;;;;10562327;28;20215;-77
2022/09/10 19:46:27;;;;;;;1.00;0.70;;;19.60;44.80;;;;;;10551853;28;20238;-76
2022/09/10 19:51:32;;;;;;;1.30;0.90;;;19.60;45.70;;;;;;10550152;28;20227;-76
2022/09/10 19:56:38;;;;;;;1.97;0.90;;;19.60;44.80;;;;;;10556763;28;20222;-76
2022/09/10 20:01:43;;;;;;;0.87;0.87;;;19.60;44.90;;;;;;10559739;28;20225;-76
2022/09/10 20:06:49;;;;;;;1.30;0.93;;;19.60;44.90;;;;;;10562382;28;20711;-76
2022/09/10 20:11:52;;;;;;;3.33;1.43;;;19.50;44.80;;;;;;10562317;28;20215;-77
2022/09/10 20:16:57;;;;;;;1.57;1.47;;;19.40;45.20;;;;;;10559564;28;20743;-77
2022/09/10 20:22:00;;;;;;;1.90;1.70;;;19.30;45.90;;;;;;10558067;28;20227;-77
2022/09/10 20:27:03;;;;;;;3.03;1.60;;;19.20;45.50;;;;;;10569033;28;20222;-77
2022/09/10 20:32:08;;;;;;;2.27;1.33;;;19.20;45.70;;;;;;10574877;28;20241;-77
2022/09/10 20:37:11;;;;;;;3.03;1.00;;;19.10;46.30;;;;;;10565773;28;20622;-78
2022/09/10 20:42:15;;;;;;;2.60;1.60;;;19.10;46.10;;;;;;10558669;28;20230;-76
2022/09/10 20:47:22;;;;;;;2.40;1.73;;;19.00;46.20;;;;;;10552525;28;20243;-77
2022/09/10 20:52:26;;;;;;;2.00;1.47;;;19.00;46.40;;;;;;10561467;28;20649;-76
2022/09/10 20:57:29;;;;;;;3.33;1.80;;;18.90;46.00;;;;;;10559126;28;20228;-77
2022/09/10 21:02:34;;;;;;;1.63;1.20;;;18.90;46.00;;;;;;10569886;28;20703;-77
2022/09/10 21:07:37;;;;;;;2.27;1.57;;;18.80;46.40;;;;;;10573768;27;20234;-77
2022/09/10 21:12:40;;;;;;;2.80;1.93;;;18.80;46.20;;;;;;10560242;28;20223;-77
2022/09/10 21:17:48;;;;;;;1.33;1.20;;;18.70;46.30;;;;;;10560387;28;20221;-77
2022/09/10 21:22:51;;;;;;;1.67;1.00;;;18.60;47.50;;;;;;10556296;28;20284;-77
2022/09/10 21:27:54;;;;;;;1.93;1.20;;;18.70;46.60;;;;;;10568558;27;20222;-77
2022/09/10 21:32:59;;;;;;;1.23;1.13;;;18.70;46.60;;;;;;10557224;27;20295;-77
2022/09/10 21:38:02;;;;;;;1.00;1.00;;;18.60;47.00;;;;;;10562518;28;20223;-77
2022/09/10 21:43:05;;;;;;;2.83;1.10;;;18.60;46.70;;;;;;10570172;28;20227;-77
2022/09/10 21:48:10;;;;;;;1.90;1.30;;;18.60;46.90;;;;;;10577683;27;20234;-77
2022/09/10 21:53:15;;;;;;;2.03;1.10;;;18.50;47.40;;;;;;10569989;28;20296;-77
2022/09/10 21:58:18;;;;;;;1.57;1.03;;;18.50;47.40;;;;;;10562714;28;20223;-77
2022/09/10 22:03:23;;;;;;;1.57;1.00;;;18.50;47.40;;;;;;10554038;28;20296;-77
2022/09/10 22:08:26;;;;;;;1.20;1.10;;;18.50;47.40;;;;;;10563195;28;20227;-77
2022/09/10 22:13:29;;;;;;;2.10;1.10;;;18.50;47.40;;;;;;10561375;28;20291;-76
2022/09/10 22:18:34;;;;;;;2.23;1.10;;;18.40;47.30;;;;;;10559198;28;20256;-76
2022/09/10 22:23:39;;;;;;;1.13;1.03;;;18.40;47.30;;;;;;10562484;28;20230;-77
2022/09/10 22:28:43;;;;;;;1.20;1.10;;;18.40;47.30;;;;;;10564238;28;20234;-77
2022/09/10 22:33:53;;;;;;;1.60;1.00;;;18.30;47.20;;;;;;10564856;28;20701;-77
2022/09/10 22:39:01;;;;;;;1.10;1.03;;;18.30;48.00;;;;;;10572919;27;20218;-77
2022/09/10 22:44:05;;;;;;;1.13;1.00;;;18.30;47.20;;;;;;10574267;28;20235;-77
2022/09/10 22:49:11;;;;;;;1.73;1.07;;;18.20;47.30;;;;;;10570824;27;20306;-77
2022/09/10 22:54:15;;;;;;;0.80;0.80;;;18.20;47.50;;;;;;10570545;27;20227;-77
2022/09/10 22:59:18;;;;;;;1.03;0.80;;;18.20;47.20;;;;;;10566606;27;20222;-77
2022/09/10 23:04:22;;;;;;;1.00;1.00;;;18.10;47.20;;;;;;10558765;28;22473;-77
2022/09/10 23:09:26;;;;;;;1.53;0.80;;;18.10;47.90;;;;;;10555532;28;20649;-77
2022/09/10 23:14:29;;;;;;;1.20;1.00;;;18.10;47.60;;;;;;10556431;28;20250;-77
2022/09/10 23:19:34;;;;;;;1.83;1.00;;;18.10;47.60;;;;;;10565594;28;20717;-77
2022/09/10 23:24:37;;;;;;;2.13;0.90;;;18.10;47.70;;;;;;10564342;28;20245;-77
2022/09/10 23:29:41;;;;;;;2.43;0.90;;;18.20;47.40;;;;;;10566900;28;20237;-76
2022/09/10 23:34:45;;;;;;;0.87;0.87;;;18.20;47.20;;;;;;10555950;28;20647;-77
2022/09/10 23:39:49;;;;;;;1.83;0.97;;;18.20;47.40;;;;;;10558781;28;20237;-76
2022/09/10 23:44:52;;;;;;;2.23;0.70;;;18.10;47.10;;;;;;10562697;28;20237;-76
2022/09/10 23:49:57;;;;;;;1.97;0.90;;;18.10;47.30;;;;;;10568140;28;20799;-76
2022/09/10 23:55:00;;;;;;;1.27;1.00;;;18.10;47.80;;;;;;10565746;28;20241;-77
